Terminal Aerodrome Forecast
Issued by NWS Omaha/Valley, NE

Home | Current Version | Previous Version | Graphics & Text | Print | Product List | Glossary On
Versions: 1 2 3 4 5 6 7 8 9 10 11 12 13 14 15 16 17 18 19 20 21 22 23 24 25 26 27 28 29 30 31 32 33 34 35 36
000
FTUS43 KOAX 181728
TAFOFK
TAF
KOFK 181728Z 1818/1918 19007KT P6SM BKN010
     FM182100 18008KT P6SM BKN035
     FM190800 14006KT P6SM BKN015
     FM191200 14007KT 5SM BR BKN008
     FM191500 16017KT P6SM SCT025=

USA.gov is the U.S. government's official web portal to all federal, state and local government web resources and services.